Time;durP1;ratioP1;P1;durP2;ratioP2;P2;SDS_P1;SDS_P2;PMS_P1;PMS_P2;Temp;Humidity;BMP_temperature;BMP_pressure;BME280_temperature;BME280_humidity;BME280_pressure;Samples;Min_cycle;Max_cycle;Signal;HPM_P1;HPM_P2
2022/03/17 00:00:33;;;;;;;9.25;8.25;;;;;;;;;;5032748;28;20234;-14
2022/03/17 00:03:00;;;;;;;11.98;8.43;;;;;;;;;;5030942;28;20256;-14
2022/03/17 00:05:27;;;;;;;12.02;9.27;;;;;;;;;;5028936;28;20249;-14
2022/03/17 00:07:54;;;;;;;11.88;9.32;;;;;;;;;;5029737;28;20237;-15
2022/03/17 00:10:22;;;;;;;11.13;8.95;;;;;;;;;;5028475;28;20261;-15
2022/03/17 00:12:49;;;;;;;10.43;9.07;;;;;;;;;;5030372;28;20432;-14
2022/03/17 00:15:16;;;;;;;11.60;10.48;;;;;;;;;;5024696;28;20629;-14
2022/03/17 00:17:44;;;;;;;11.80;9.32;;;;;;;;;;5028128;28;20256;-14
2022/03/17 00:20:12;;;;;;;16.60;9.57;;;;;;;;;;5031875;28;20910;-14
2022/03/17 00:22:39;;;;;;;11.88;10.57;;;;;;;;;;5032418;28;20754;-14
2022/03/17 00:25:06;;;;;;;18.02;10.25;;;;;;;;;;5031640;28;20408;-14
2022/03/17 00:27:33;;;;;;;12.95;10.73;;;;;;;;;;5033072;28;20615;-14
2022/03/17 00:30:00;;;;;;;12.10;10.73;;;;;;;;;;5033972;28;20248;-14
2022/03/17 00:32:27;;;;;;;18.75;12.65;;;;;;;;;;5032218;28;20230;-14
2022/03/17 00:37:40;;;;;;;17.60;15.70;;;;;;;;;;5028137;28;20244;-14
2022/03/17 00:40:07;;;;;;;19.60;15.93;;;;;;;;;;5033050;28;20231;-14
2022/03/17 00:42:34;;;;;;;17.95;15.57;;;;;;;;;;5028997;28;20282;-14
2022/03/17 00:45:00;;;;;;;19.50;15.95;;;;;;;;;;5033453;28;20698;-14
2022/03/17 00:47:27;;;;;;;18.65;15.98;;;;;;;;;;5032831;28;20231;-14
2022/03/17 00:49:54;;;;;;;27.33;17.08;;;;;;;;;;5014584;28;20449;-14
2022/03/17 00:52:21;;;;;;;28.63;17.00;;;;;;;;;;5021808;28;21122;-14
2022/03/17 00:54:48;;;;;;;31.25;16.00;;;;;;;;;;5030578;28;20230;-14
2022/03/17 00:57:16;;;;;;;20.30;16.02;;;;;;;;;;5032696;28;20318;-14
2022/03/17 00:59:43;;;;;;;29.65;16.50;;;;;;;;;;5033018;28;20237;-14
2022/03/17 01:02:10;;;;;;;22.80;15.95;;;;;;;;;;5034500;28;20226;-14
2022/03/17 01:04:38;;;;;;;19.42;16.42;;;;;;;;;;5028637;28;21036;-14
2022/03/17 01:07:05;;;;;;;21.88;15.88;;;;;;;;;;5027335;28;21031;-14
2022/03/17 01:09:32;;;;;;;20.83;15.70;;;;;;;;;;5030597;28;20822;-14
2022/03/17 01:11:59;;;;;;;27.80;15.55;;;;;;;;;;5031334;28;20231;-14
2022/03/17 01:14:26;;;;;;;20.08;16.20;;;;;;;;;;5030410;28;20227;-14
2022/03/17 01:16:53;;;;;;;20.60;14.63;;;;;;;;;;5031899;28;20239;-14
2022/03/17 01:19:20;;;;;;;19.83;14.32;;;;;;;;;;5032598;28;20240;-14
2022/03/17 01:21:47;;;;;;;22.45;15.23;;;;;;;;;;5031843;28;21098;-14
2022/03/17 01:24:14;;;;;;;18.08;14.52;;;;;;;;;;5032559;28;20215;-14
2022/03/17 01:26:41;;;;;;;19.33;15.15;;;;;;;;;;5031051;28;20254;-14
2022/03/17 01:29:08;;;;;;;20.05;14.18;;;;;;;;;;5032497;28;20226;-14
2022/03/17 01:31:35;;;;;;;17.90;14.98;;;;;;;;;;5031704;28;20238;-14
2022/03/17 01:34:03;;;;;;;18.70;14.73;;;;;;;;;;5033221;28;20223;-14
2022/03/17 01:36:30;;;;;;;18.80;14.70;;;;;;;;;;5051771;28;20244;-14
2022/03/17 01:38:57;;;;;;;21.50;14.52;;;;;;;;;;5036470;28;20222;-14
2022/03/17 01:41:24;;;;;;;19.17;14.57;;;;;;;;;;5030773;28;20231;-14
2022/03/17 01:43:51;;;;;;;21.25;14.43;;;;;;;;;;5022161;28;20234;-14
2022/03/17 01:46:18;;;;;;;20.35;15.35;;;;;;;;;;5026280;28;20231;-14
2022/03/17 01:48:45;;;;;;;18.25;15.77;;;;;;;;;;5032411;28;20716;-14
2022/03/17 01:51:13;;;;;;;17.63;15.40;;;;;;;;;;5014127;28;20246;-14
2022/03/17 01:53:40;;;;;;;17.67;15.77;;;;;;;;;;5012061;28;20230;-14
2022/03/17 01:56:07;;;;;;;17.85;15.95;;;;;;;;;;5012009;28;20233;-14
2022/03/17 01:58:34;;;;;;;18.50;14.95;;;;;;;;;;5010693;28;20250;-14
2022/03/17 02:01:01;;;;;;;17.77;15.30;;;;;;;;;;5026812;28;20230;-14
2022/03/17 02:03:29;;;;;;;20.58;15.90;;;;;;;;;;5031684;28;20227;-14
2022/03/17 02:05:56;;;;;;;17.00;14.43;;;;;;;;;;5031505;28;20231;-14
2022/03/17 02:08:23;;;;;;;18.90;15.73;;;;;;;;;;5031632;28;20227;-14
2022/03/17 02:13:35;;;;;;;20.48;14.85;;;;;;;;;;5031738;28;20229;-14
2022/03/17 02:16:03;;;;;;;16.58;14.57;;;;;;;;;;5031439;28;20258;-14
2022/03/17 02:18:31;;;;;;;17.17;15.38;;;;;;;;;;5031331;28;20242;-14
2022/03/17 02:20:59;;;;;;;20.35;15.27;;;;;;;;;;5031180;28;20235;-14
2022/03/17 02:26:12;;;;;;;18.77;15.55;;;;;;;;;;5031430;28;20238;-14
2022/03/17 02:28:41;;;;;;;19.58;16.70;;;;;;;;;;5031067;28;20287;-14
2022/03/17 02:31:08;;;;;;;18.25;16.05;;;;;;;;;;5039105;28;20242;-14
2022/03/17 02:33:38;;;;;;;19.33;16.23;;;;;;;;;;5031130;28;20301;-14
2022/03/17 02:36:05;;;;;;;18.42;15.82;;;;;;;;;;5031718;28;20601;-14
2022/03/17 02:38:33;;;;;;;18.70;16.05;;;;;;;;;;5031110;28;20266;-14
2022/03/17 02:41:00;;;;;;;18.08;15.60;;;;;;;;;;5031419;28;20219;-14
2022/03/17 02:43:27;;;;;;;20.27;15.23;;;;;;;;;;5029281;28;20227;-14
2022/03/17 02:45:54;;;;;;;16.48;14.77;;;;;;;;;;5037704;28;20316;-14
2022/03/17 02:48:21;;;;;;;18.30;15.82;;;;;;;;;;5051029;28;20330;-14
2022/03/17 02:50:48;;;;;;;20.63;15.77;;;;;;;;;;5051287;28;20237;-14
2022/03/17 02:53:16;;;;;;;18.30;14.85;;;;;;;;;;5051165;28;20607;-14
2022/03/17 02:55:44;;;;;;;18.55;15.38;;;;;;;;;;5037244;28;20698;-14
2022/03/17 02:58:11;;;;;;;17.35;15.52;;;;;;;;;;5031175;28;20243;-14
2022/03/17 03:00:38;;;;;;;16.85;14.82;;;;;;;;;;5036239;28;21087;-14
2022/03/17 03:03:08;;;;;;;20.63;15.85;;;;;;;;;;5050765;28;21039;-14
2022/03/17 03:05:35;;;;;;;17.90;15.98;;;;;;;;;;5045896;28;20971;-14
2022/03/17 03:08:03;;;;;;;16.77;14.98;;;;;;;;;;5030926;28;20281;-14
2022/03/17 03:10:30;;;;;;;18.33;14.73;;;;;;;;;;5030652;28;20270;-14
2022/03/17 03:12:57;;;;;;;18.70;14.52;;;;;;;;;;5032042;28;20234;-14
2022/03/17 03:15:24;;;;;;;17.10;15.27;;;;;;;;;;5033900;28;20278;-14
2022/03/17 03:17:51;;;;;;;18.20;15.50;;;;;;;;;;5034145;28;20242;-14
2022/03/17 03:20:18;;;;;;;19.02;14.80;;;;;;;;;;5034535;28;20241;-14
2022/03/17 03:22:45;;;;;;;17.65;15.77;;;;;;;;;;5078460;22;20247;-13
2022/03/17 03:25:12;;;;;;;20.02;15.82;;;;;;;;;;5068520;28;20236;-13
2022/03/17 03:27:40;;;;;;;18.20;15.15;;;;;;;;;;5064217;28;20230;-13
2022/03/17 03:30:07;;;;;;;20.30;16.45;;;;;;;;;;5063432;28;21039;-13
2022/03/17 03:32:34;;;;;;;19.05;16.20;;;;;;;;;;5095118;28;20249;-13
2022/03/17 03:37:22;;;;;;;19.65;16.15;;;;;;;;;;5094271;28;20802;-13
2022/03/17 03:37:48;;;;;;;19.02;16.73;;;;;;;;;;5088095;28;20706;-13
2022/03/17 03:40:15;;;;;;;20.35;16.17;;;;;;;;;;5074441;28;20233;-13
2022/03/17 03:42:42;;;;;;;21.17;17.75;;;;;;;;;;5071996;28;20225;-13
2022/03/17 03:45:09;;;;;;;19.95;17.38;;;;;;;;;;5072193;28;20224;-13
2022/03/17 03:47:36;;;;;;;20.55;16.60;;;;;;;;;;5092891;28;20232;-13
2022/03/17 03:50:03;;;;;;;22.90;16.42;;;;;;;;;;5062219;28;20238;-13
2022/03/17 03:52:30;;;;;;;17.48;15.20;;;;;;;;;;5052671;28;20226;-13
2022/03/17 03:54:57;;;;;;;19.65;16.30;;;;;;;;;;5051506;28;20222;-13
2022/03/17 03:57:24;;;;;;;19.15;16.23;;;;;;;;;;5068346;28;20237;-13
2022/03/17 03:59:51;;;;;;;20.20;16.50;;;;;;;;;;5070686;28;21028;-13
2022/03/17 04:02:18;;;;;;;17.48;15.57;;;;;;;;;;5071890;28;20233;-14
2022/03/17 04:04:45;;;;;;;20.95;16.70;;;;;;;;;;5052983;28;20985;-13
2022/03/17 04:07:12;;;;;;;20.35;16.17;;;;;;;;;;5053313;28;20268;-13
2022/03/17 04:09:40;;;;;;;18.45;16.35;;;;;;;;;;5053172;28;20226;-13
2022/03/17 04:12:07;;;;;;;23.55;17.55;;;;;;;;;;5069337;28;20221;-13
2022/03/17 04:14:34;;;;;;;19.58;16.80;;;;;;;;;;5073263;28;20231;-13
2022/03/17 04:17:04;;;;;;;19.27;16.38;;;;;;;;;;5090459;28;20228;-13
2022/03/17 04:19:31;;;;;;;22.10;17.50;;;;;;;;;;5093719;28;20694;-13
2022/03/17 04:21:58;;;;;;;21.02;17.63;;;;;;;;;;5084890;28;20249;-13
2022/03/17 04:24:25;;;;;;;22.60;17.67;;;;;;;;;;5072115;28;20218;-14
2022/03/17 04:26:52;;;;;;;21.10;16.92;;;;;;;;;;5073076;28;20232;-13
2022/03/17 04:29:19;;;;;;;20.35;16.85;;;;;;;;;;5058587;28;20234;-14
2022/03/17 04:31:47;;;;;;;21.45;17.05;;;;;;;;;;5084313;28;20225;-14
2022/03/17 04:34:14;;;;;;;20.85;17.25;;;;;;;;;;5074810;28;20316;-13
2022/03/17 04:36:41;;;;;;;20.17;16.88;;;;;;;;;;5073498;28;20214;-13
2022/03/17 04:39:11;;;;;;;21.77;17.52;;;;;;;;;;5071527;28;20248;-13
2022/03/17 04:41:38;;;;;;;17.77;15.85;;;;;;;;;;5072747;28;20221;-13
2022/03/17 04:44:04;;;;;;;19.42;16.70;;;;;;;;;;5072005;28;20233;-13
2022/03/17 04:46:32;;;;;;;21.48;17.40;;;;;;;;;;5085298;28;20209;-13
2022/03/17 04:48:59;;;;;;;19.38;16.40;;;;;;;;;;5092605;28;20320;-13
2022/03/17 04:51:26;;;;;;;23.48;17.42;;;;;;;;;;5093158;28;20355;-14
2022/03/17 04:53:53;;;;;;;20.02;16.83;;;;;;;;;;5093101;28;20217;-13
2022/03/17 04:56:20;;;;;;;22.05;16.25;;;;;;;;;;5073438;28;20994;-14
2022/03/17 04:58:47;;;;;;;21.58;16.13;;;;;;;;;;5064075;28;20296;-13
2022/03/17 05:01:14;;;;;;;18.98;14.77;;;;;;;;;;5062080;28;20217;-14
2022/03/17 05:03:42;;;;;;;15.68;13.20;;;;;;;;;;5072827;28;20268;-13
2022/03/17 05:06:09;;;;;;;15.10;13.50;;;;;;;;;;5072137;28;20233;-14
2022/03/17 05:08:36;;;;;;;14.70;11.55;;;;;;;;;;5072739;28;20220;-13
2022/03/17 05:11:03;;;;;;;14.32;11.65;;;;;;;;;;5072587;28;20209;-13
2022/03/17 05:13:30;;;;;;;14.02;10.85;;;;;;;;;;5072106;28;20214;-13
2022/03/17 05:15:57;;;;;;;13.65;10.13;;;;;;;;;;5079927;28;20240;-13
2022/03/17 05:18:24;;;;;;;11.55;9.35;;;;;;;;;;5073017;28;20264;-13
2022/03/17 05:20:51;;;;;;;11.00;8.57;;;;;;;;;;5071853;28;20216;-13
2022/03/17 05:23:18;;;;;;;8.13;7.00;;;;;;;;;;5072134;28;20225;-14
2022/03/17 05:25:44;;;;;;;8.23;6.50;;;;;;;;;;5072179;28;20217;-13
2022/03/17 05:28:12;;;;;;;8.02;5.82;;;;;;;;;;5067105;28;20234;-13
2022/03/17 05:30:39;;;;;;;9.25;6.07;;;;;;;;;;5063515;28;20218;-13
2022/03/17 05:33:07;;;;;;;6.38;5.38;;;;;;;;;;5051986;28;20230;-13
2022/03/17 05:35:34;;;;;;;7.97;5.88;;;;;;;;;;5051651;28;20689;-13
2022/03/17 05:38:01;;;;;;;6.07;5.43;;;;;;;;;;5050619;28;20250;-14
2022/03/17 05:40:28;;;;;;;6.40;5.35;;;;;;;;;;5071075;28;20241;-14
2022/03/17 05:42:55;;;;;;;5.32;4.38;;;;;;;;;;5072325;28;20221;-14
2022/03/17 05:45:22;;;;;;;5.60;4.78;;;;;;;;;;5074353;28;20231;-14
2022/03/17 05:47:49;;;;;;;5.97;4.50;;;;;;;;;;5092185;28;20244;-14
2022/03/17 05:50:16;;;;;;;4.88;4.28;;;;;;;;;;5081579;28;20229;-14
2022/03/17 05:52:43;;;;;;;7.07;4.20;;;;;;;;;;5071975;28;20214;-14
2022/03/17 05:55:10;;;;;;;4.40;3.70;;;;;;;;;;5071759;28;20671;-14
2022/03/17 05:57:37;;;;;;;5.15;3.97;;;;;;;;;;5071835;28;20689;-14
2022/03/17 06:00:04;;;;;;;5.32;4.32;;;;;;;;;;5071111;28;20214;-14
2022/03/17 06:02:31;;;;;;;4.90;3.55;;;;;;;;;;5071011;28;20229;-14
2022/03/17 06:04:58;;;;;;;4.60;3.60;;;;;;;;;;5071419;28;20708;-14
2022/03/17 06:07:25;;;;;;;4.90;3.45;;;;;;;;;;5071910;28;21057;-13
2022/03/17 06:09:52;;;;;;;4.68;3.30;;;;;;;;;;5071733;28;20304;-14
2022/03/17 06:12:19;;;;;;;6.70;2.80;;;;;;;;;;5071192;28;20225;-14
2022/03/17 06:14:46;;;;;;;5.32;3.22;;;;;;;;;;5071498;28;20229;-14
2022/03/17 06:17:13;;;;;;;4.55;2.67;;;;;;;;;;5089810;28;20221;-14
2022/03/17 06:19:40;;;;;;;5.18;3.05;;;;;;;;;;5091779;28;20244;-13
2022/03/17 06:22:07;;;;;;;5.53;2.63;;;;;;;;;;5085316;28;20241;-14
2022/03/17 06:24:34;;;;;;;3.88;2.65;;;;;;;;;;5064651;28;20237;-14
2022/03/17 06:27:01;;;;;;;4.55;2.30;;;;;;;;;;5067241;28;20233;-13
2022/03/17 06:29:28;;;;;;;5.97;2.65;;;;;;;;;;5065824;28;20237;-14
2022/03/17 06:31:56;;;;;;;5.95;2.50;;;;;;;;;;5067769;28;20229;-14
2022/03/17 06:34:23;;;;;;;4.68;2.00;;;;;;;;;;5066762;28;20229;-14
2022/03/17 06:36:50;;;;;;;3.85;1.95;;;;;;;;;;5065011;28;20242;-13
2022/03/17 06:39:17;;;;;;;3.97;2.28;;;;;;;;;;5055967;28;20242;-14
2022/03/17 06:41:44;;;;;;;5.25;2.00;;;;;;;;;;5061840;28;20237;-14
2022/03/17 06:44:11;;;;;;;4.50;2.10;;;;;;;;;;5061119;28;20230;-14
2022/03/17 06:46:38;;;;;;;5.88;2.17;;;;;;;;;;5065121;28;20227;-14
2022/03/17 06:49:05;;;;;;;3.33;1.60;;;;;;;;;;5066188;28;20230;-13
2022/03/17 06:51:32;;;;;;;5.68;2.33;;;;;;;;;;5070961;28;20324;-14
2022/03/17 06:53:59;;;;;;;2.58;1.65;;;;;;;;;;5074297;28;20996;-14
2022/03/17 06:56:26;;;;;;;5.25;1.90;;;;;;;;;;5073282;28;20243;-14
2022/03/17 06:58:53;;;;;;;3.88;1.75;;;;;;;;;;5071363;28;20241;-14
2022/03/17 07:01:20;;;;;;;3.45;1.75;;;;;;;;;;5074564;28;20236;-14
2022/03/17 07:03:47;;;;;;;5.45;2.22;;;;;;;;;;5073933;28;20225;-14
2022/03/17 07:06:14;;;;;;;4.38;1.70;;;;;;;;;;5072477;28;20233;-14
2022/03/17 07:08:41;;;;;;;4.43;2.05;;;;;;;;;;5072866;28;20221;-14
2022/03/17 07:11:08;;;;;;;4.47;1.60;;;;;;;;;;5073920;28;20221;-14
2022/03/17 07:13:35;;;;;;;4.47;1.63;;;;;;;;;;5070976;28;20225;-14
2022/03/17 07:16:02;;;;;;;5.40;1.70;;;;;;;;;;5073798;28;20697;-13
2022/03/17 07:18:29;;;;;;;5.82;1.70;;;;;;;;;;5073399;28;20241;-14
2022/03/17 07:20:59;;;;;;;3.63;1.70;;;;;;;;;;5073914;28;20599;-14
2022/03/17 07:23:26;;;;;;;7.10;2.15;;;;;;;;;;5074214;28;20930;-14
2022/03/17 07:25:53;;;;;;;5.07;1.58;;;;;;;;;;5074069;28;20229;-14
2022/03/17 07:28:21;;;;;;;9.30;1.83;;;;;;;;;;5073029;28;20214;-14
2022/03/17 07:30:48;;;;;;;5.05;1.70;;;;;;;;;;5076083;28;20221;-14
2022/03/17 07:33:15;;;;;;;4.85;1.60;;;;;;;;;;5070910;28;20669;-14
2022/03/17 07:35:42;;;;;;;4.13;1.60;;;;;;;;;;5070889;28;21081;-14
2022/03/17 07:38:09;;;;;;;5.20;2.35;;;;;;;;;;5070655;28;20968;-14
2022/03/17 07:40:35;;;;;;;5.05;1.67;;;;;;;;;;5066979;28;20817;-14
2022/03/17 07:43:03;;;;;;;9.40;1.63;;;;;;;;;;5065652;28;20233;-14
2022/03/17 07:45:30;;;;;;;11.93;1.77;;;;;;;;;;5065105;28;20232;-14
2022/03/17 07:47:56;;;;;;;9.70;1.90;;;;;;;;;;5063322;28;20227;-14
2022/03/17 07:50:24;;;;;;;9.00;1.40;;;;;;;;;;5064234;28;20229;-14
2022/03/17 07:52:51;;;;;;;6.30;1.70;;;;;;;;;;5063990;28;20237;-14
2022/03/17 07:55:18;;;;;;;5.18;1.75;;;;;;;;;;5069925;28;20237;-14
2022/03/17 07:57:45;;;;;;;4.47;1.50;;;;;;;;;;5066170;28;20237;-14
2022/03/17 08:00:12;;;;;;;6.75;1.52;;;;;;;;;;5072537;28;20711;-14
2022/03/17 08:02:40;;;;;;;6.95;1.70;;;;;;;;;;5069228;28;20692;-14
2022/03/17 08:05:08;;;;;;;5.65;1.30;;;;;;;;;;5069150;28;20707;-14
2022/03/17 08:07:35;;;;;;;6.05;1.23;;;;;;;;;;5065006;28;20231;-14
2022/03/17 08:10:02;;;;;;;9.23;1.30;;;;;;;;;;5070457;28;20241;-14
2022/03/17 08:12:31;;;;;;;4.85;1.25;;;;;;;;;;5070301;28;20226;-14
2022/03/17 08:14:58;;;;;;;2.88;1.02;;;;;;;;;;5063859;28;20245;-14
2022/03/17 08:17:25;;;;;;;6.22;1.20;;;;;;;;;;5073676;28;20230;-14
2022/03/17 08:19:53;;;;;;;6.65;1.45;;;;;;;;;;5070444;28;20233;-14
2022/03/17 08:22:20;;;;;;;12.37;1.90;;;;;;;;;;5068452;28;20409;-14
2022/03/17 08:24:47;;;;;;;12.98;1.58;;;;;;;;;;5069722;28;20230;-13
2022/03/17 08:27:14;;;;;;;10.02;1.27;;;;;;;;;;5066351;28;20241;-14
2022/03/17 08:29:43;;;;;;;6.20;1.40;;;;;;;;;;5070362;28;20325;-14
2022/03/17 08:32:10;;;;;;;10.63;1.10;;;;;;;;;;5072166;28;20229;-14
2022/03/17 08:34:37;;;;;;;9.23;1.75;;;;;;;;;;5072535;28;20233;-14
2022/03/17 08:37:04;;;;;;;6.25;1.50;;;;;;;;;;5073024;28;20209;-13
2022/03/17 08:39:31;;;;;;;5.63;1.10;;;;;;;;;;5072273;28;20244;-14
2022/03/17 08:41:58;;;;;;;6.18;1.40;;;;;;;;;;5069033;28;20232;-14
2022/03/17 08:44:25;;;;;;;5.40;1.17;;;;;;;;;;5069497;28;20225;-14
2022/03/17 08:49:43;;;;;;;4.50;1.23;;;;;;;;;;5071785;28;20239;-14
2022/03/17 08:52:10;;;;;;;9.50;1.05;;;;;;;;;;5053729;28;20231;-14
2022/03/17 08:54:37;;;;;;;9.18;1.48;;;;;;;;;;5071789;28;20236;-14
2022/03/17 08:57:04;;;;;;;4.60;1.17;;;;;;;;;;5068827;28;20234;-14
2022/03/17 08:59:31;;;;;;;5.85;1.10;;;;;;;;;;5072112;28;20237;-14
2022/03/17 09:01:58;;;;;;;6.10;1.35;;;;;;;;;;5064962;28;20493;-14
2022/03/17 09:04:25;;;;;;;4.57;1.23;;;;;;;;;;5059911;28;20931;-13
2022/03/17 09:06:54;;;;;;;7.57;1.80;;;;;;;;;;5054060;28;20237;-13
2022/03/17 09:09:21;;;;;;;8.45;1.70;;;;;;;;;;5054756;28;20256;-14
2022/03/17 09:11:48;;;;;;;14.48;1.88;;;;;;;;;;5068143;28;20436;-13
2022/03/17 09:14:15;;;;;;;12.43;1.80;;;;;;;;;;5052094;28;20331;-14
2022/03/17 09:16:42;;;;;;;9.43;1.27;;;;;;;;;;5079632;28;20225;-14
2022/03/17 09:19:09;;;;;;;7.90;1.50;;;;;;;;;;5082395;28;20248;-14
2022/03/17 09:21:36;;;;;;;12.13;1.73;;;;;;;;;;5072058;28;20248;-14
2022/03/17 09:24:03;;;;;;;8.23;1.20;;;;;;;;;;5072313;28;20226;-14
2022/03/17 09:26:30;;;;;;;9.40;1.75;;;;;;;;;;5068995;28;20708;-14
2022/03/17 09:28:57;;;;;;;14.93;1.63;;;;;;;;;;5071154;28;20235;-14
2022/03/17 09:31:24;;;;;;;7.28;1.80;;;;;;;;;;5057716;28;20230;-14
2022/03/17 09:33:51;;;;;;;12.95;1.65;;;;;;;;;;5054490;28;20233;-14
2022/03/17 09:36:19;;;;;;;9.50;1.77;;;;;;;;;;5056666;28;20427;-14
2022/03/17 09:39:39;;;;;;;7.57;1.52;;;;;;;;;;5057911;28;20238;-14
2022/03/17 09:41:33;;;;;;;12.45;1.75;;;;;;;;;;5056958;28;20900;-15
2022/03/17 09:44:00;;;;;;;13.38;1.83;;;;;;;;;;5051267;28;20234;-14
2022/03/17 09:46:27;;;;;;;9.73;2.13;;;;;;;;;;5058239;28;20457;-14
2022/03/17 09:48:55;;;;;;;8.40;1.75;;;;;;;;;;5062038;28;20487;-14
2022/03/17 09:51:22;;;;;;;14.85;2.45;;;;;;;;;;5058805;28;20418;-14
2022/03/17 09:53:52;;;;;;;10.93;1.83;;;;;;;;;;5064701;28;20241;-14
2022/03/17 09:56:20;;;;;;;10.13;2.50;;;;;;;;;;5069689;28;20241;-14
2022/03/17 09:58:47;;;;;;;20.00;2.03;;;;;;;;;;5070353;28;20248;-14
2022/03/17 10:01:15;;;;;;;16.83;1.97;;;;;;;;;;5063855;28;20413;-14
2022/03/17 10:03:42;;;;;;;16.00;2.38;;;;;;;;;;5070474;28;21329;-14
2022/03/17 10:06:10;;;;;;;13.75;2.05;;;;;;;;;;5069936;28;20871;-14
2022/03/17 10:08:39;;;;;;;12.27;2.28;;;;;;;;;;5070974;28;20232;-14
2022/03/17 10:11:06;;;;;;;7.45;1.40;;;;;;;;;;5071203;28;20711;-14
2022/03/17 10:13:41;;;;;;;7.40;1.55;;;;;;;;;;5070915;28;20233;-14
2022/03/17 10:16:09;;;;;;;16.05;3.65;;;;;;;;;;5080636;28;20334;-14
2022/03/17 10:18:39;;;;;;;11.40;1.60;;;;;;;;;;5091941;28;20221;-14
2022/03/17 10:21:06;;;;;;;8.30;1.38;;;;;;;;;;5072962;28;20233;-14
2022/03/17 10:23:33;;;;;;;9.50;1.83;;;;;;;;;;5057345;28;20242;-14
2022/03/17 10:26:05;;;;;;;7.63;1.63;;;;;;;;;;5065584;28;20235;-14
2022/03/17 10:28:32;;;;;;;8.65;1.70;;;;;;;;;;5069685;28;20244;-13
2022/03/17 10:31:01;;;;;;;9.93;1.30;;;;;;;;;;5066861;28;20688;-12
2022/03/17 10:33:29;;;;;;;11.60;1.25;;;;;;;;;;5070703;28;20244;-13
2022/03/17 10:35:56;;;;;;;5.78;1.52;;;;;;;;;;5070521;28;20242;-12
2022/03/17 10:38:23;;;;;;;4.88;1.17;;;;;;;;;;5071957;28;20708;-13
2022/03/17 10:40:50;;;;;;;7.47;1.15;;;;;;;;;;5069546;28;20956;-12
2022/03/17 10:43:17;;;;;;;6.95;1.33;;;;;;;;;;5072346;28;20234;-12
2022/03/17 10:45:44;;;;;;;7.13;1.30;;;;;;;;;;5073266;28;20248;-13
2022/03/17 10:48:11;;;;;;;7.65;1.27;;;;;;;;;;5071382;28;20225;-12
2022/03/17 10:50:38;;;;;;;5.75;1.17;;;;;;;;;;5067687;28;20281;-12
2022/03/17 10:53:05;;;;;;;9.15;1.30;;;;;;;;;;5071316;28;20239;-12
2022/03/17 10:55:32;;;;;;;5.45;1.38;;;;;;;;;;5071801;28;20245;-13
2022/03/17 10:57:59;;;;;;;4.50;1.02;;;;;;;;;;5058271;28;20238;-13
2022/03/17 11:00:26;;;;;;;8.57;1.17;;;;;;;;;;5074800;28;20232;-13
2022/03/17 11:02:56;;;;;;;10.23;1.50;;;;;;;;;;5072621;28;20723;-12
2022/03/17 11:05:24;;;;;;;8.35;1.38;;;;;;;;;;5073282;28;20291;-13
2022/03/17 11:07:54;;;;;;;5.13;1.20;;;;;;;;;;5069632;28;20240;-13
2022/03/17 11:10:22;;;;;;;5.40;1.58;;;;;;;;;;5064221;28;20237;-13
2022/03/17 11:12:51;;;;;;;7.93;1.20;;;;;;;;;;5069202;28;21175;-12
2022/03/17 11:15:18;;;;;;;4.63;1.25;;;;;;;;;;5067157;28;20625;-13
2022/03/17 11:17:46;;;;;;;7.93;1.35;;;;;;;;;;5067716;28;20229;-12
2022/03/17 11:20:13;;;;;;;4.00;1.08;;;;;;;;;;5068401;28;20260;-13
2022/03/17 11:22:40;;;;;;;8.25;1.42;;;;;;;;;;5058193;28;21067;-12
2022/03/17 11:25:08;;;;;;;8.07;1.42;;;;;;;;;;5064577;28;20229;-13
2022/03/17 11:27:35;;;;;;;12.27;1.45;;;;;;;;;;5071438;28;21159;-12
2022/03/17 11:30:06;;;;;;;9.43;1.63;;;;;;;;;;5073298;28;20700;-13
2022/03/17 11:32:33;;;;;;;15.88;2.08;;;;;;;;;;5054103;28;20218;-13
2022/03/17 11:35:00;;;;;;;9.07;2.65;;;;;;;;;;5064952;28;20471;-13
2022/03/17 11:37:27;;;;;;;10.73;2.38;;;;;;;;;;5054104;28;20234;-13
2022/03/17 11:39:55;;;;;;;18.47;2.83;;;;;;;;;;5064143;28;20417;-13
2022/03/17 11:42:22;;;;;;;15.30;2.15;;;;;;;;;;5073478;28;20448;-13
2022/03/17 11:44:48;;;;;;;10.75;2.28;;;;;;;;;;5074082;28;20225;-13
2022/03/17 11:47:15;;;;;;;9.93;2.20;;;;;;;;;;5091687;28;20699;-13
2022/03/17 11:49:42;;;;;;;7.32;1.92;;;;;;;;;;5094115;28;20224;-13
2022/03/17 11:52:09;;;;;;;8.48;2.03;;;;;;;;;;5075891;28;20233;-14
2022/03/17 11:54:36;;;;;;;9.43;2.10;;;;;;;;;;5073494;28;20221;-13
2022/03/17 11:57:06;;;;;;;7.18;1.58;;;;;;;;;;5072821;28;20230;-13
2022/03/17 11:59:33;;;;;;;8.02;1.50;;;;;;;;;;5073356;28;20268;-13
2022/03/17 12:02:00;;;;;;;5.05;1.60;;;;;;;;;;5073383;28;20241;-13
2022/03/17 12:04:30;;;;;;;7.90;1.42;;;;;;;;;;5073628;28;20229;-13
2022/03/17 12:06:58;;;;;;;4.22;1.50;;;;;;;;;;5073004;28;20300;-13
2022/03/17 12:09:25;;;;;;;5.28;1.40;;;;;;;;;;5056325;28;20234;-14
2022/03/17 12:11:52;;;;;;;3.83;1.30;;;;;;;;;;5058693;28;20712;-13
2022/03/17 12:14:23;;;;;;;5.75;1.58;;;;;;;;;;5073395;28;20273;-13
2022/03/17 12:16:51;;;;;;;4.03;1.10;;;;;;;;;;5088510;28;20213;-13
2022/03/17 12:19:18;;;;;;;4.63;1.30;;;;;;;;;;5093493;28;20236;-14
2022/03/17 12:21:45;;;;;;;5.38;1.48;;;;;;;;;;5088132;28;20241;-13
2022/03/17 12:24:12;;;;;;;5.78;1.25;;;;;;;;;;5068106;28;20233;-13
2022/03/17 12:26:39;;;;;;;3.75;1.23;;;;;;;;;;5072812;28;20312;-13
2022/03/17 12:29:07;;;;;;;4.50;1.25;;;;;;;;;;5073042;28;20222;-13
2022/03/17 12:31:34;;;;;;;2.85;1.10;;;;;;;;;;5085918;28;20229;-14
2022/03/17 12:34:01;;;;;;;4.72;0.98;;;;;;;;;;5079301;28;20227;-13
2022/03/17 12:36:28;;;;;;;6.20;1.27;;;;;;;;;;5067800;28;20229;-13
2022/03/17 12:38:55;;;;;;;7.35;1.40;;;;;;;;;;5065009;28;20422;-13
2022/03/17 12:41:22;;;;;;;8.40;1.67;;;;;;;;;;5064107;28;20252;-14
2022/03/17 12:43:49;;;;;;;5.55;1.45;;;;;;;;;;5064837;28;20917;-13
2022/03/17 12:46:16;;;;;;;6.82;1.35;;;;;;;;;;5076925;28;20228;-13
2022/03/17 12:48:43;;;;;;;12.07;1.38;;;;;;;;;;5093187;28;20231;-13
2022/03/17 12:51:12;;;;;;;8.05;1.20;;;;;;;;;;5074531;28;20708;-14
2022/03/17 12:53:39;;;;;;;9.15;1.23;;;;;;;;;;5052763;28;20222;-13
2022/03/17 12:56:06;;;;;;;4.88;1.10;;;;;;;;;;5068309;28;20228;-13
2022/03/17 12:58:34;;;;;;;3.58;1.38;;;;;;;;;;5093151;28;20217;-13
2022/03/17 13:01:01;;;;;;;12.18;2.20;;;;;;;;;;5092614;28;20648;-13
2022/03/17 13:03:28;;;;;;;9.05;1.67;;;;;;;;;;5093164;28;20227;-14
2022/03/17 13:08:41;;;;;;;7.18;1.55;;;;;;;;;;5055797;28;20704;-13
2022/03/17 13:16:40;;;;;;;15.18;2.03;;;;;;;;;;5069358;28;20239;-13
2022/03/17 13:19:08;;;;;;;19.60;2.22;;;;;;;;;;5068122;28;20229;-13
2022/03/17 13:21:35;;;;;;;5.45;1.45;;;;;;;;;;5068659;28;20249;-13
2022/03/17 13:24:02;;;;;;;9.57;1.50;;;;;;;;;;5052246;28;21447;-13
2022/03/17 13:26:30;;;;;;;11.15;1.75;;;;;;;;;;5051600;28;20210;-13
2022/03/17 13:29:01;;;;;;;8.23;1.20;;;;;;;;;;5058839;28;20236;-14
2022/03/17 13:31:28;;;;;;;7.95;2.03;;;;;;;;;;5084203;28;20312;-13
2022/03/17 13:33:55;;;;;;;8.50;1.23;;;;;;;;;;5078047;28;20233;-14
2022/03/17 13:36:24;;;;;;;8.90;1.52;;;;;;;;;;5070670;28;20225;-14
2022/03/17 13:38:51;;;;;;;5.82;1.33;;;;;;;;;;5072031;28;20225;-13
2022/03/17 13:41:18;;;;;;;9.45;1.63;;;;;;;;;;5069452;28;21220;-13
2022/03/17 13:43:45;;;;;;;4.88;1.27;;;;;;;;;;5059533;28;20954;-14
2022/03/17 13:46:12;;;;;;;4.78;1.30;;;;;;;;;;5071054;28;20277;-14
2022/03/17 13:48:39;;;;;;;5.78;1.08;;;;;;;;;;5092052;28;20220;-13
2022/03/17 13:51:06;;;;;;;7.50;1.63;;;;;;;;;;5082646;28;20722;-13
2022/03/17 13:53:33;;;;;;;6.97;1.20;;;;;;;;;;5072030;28;20716;-14
2022/03/17 13:56:00;;;;;;;6.57;1.25;;;;;;;;;;5072088;28;20233;-13
2022/03/17 13:58:27;;;;;;;6.90;0.90;;;;;;;;;;5070701;28;20225;-13
2022/03/17 14:00:54;;;;;;;4.53;1.23;;;;;;;;;;5070899;28;20245;-13
2022/03/17 14:03:21;;;;;;;2.42;1.05;;;;;;;;;;5070757;28;20229;-13
2022/03/17 14:05:48;;;;;;;6.15;1.20;;;;;;;;;;5071898;28;20221;-13
2022/03/17 14:08:15;;;;;;;3.70;1.08;;;;;;;;;;5070988;28;20225;-13
2022/03/17 14:10:42;;;;;;;4.63;0.80;;;;;;;;;;5071478;28;20229;-13
2022/03/17 14:13:09;;;;;;;6.88;1.30;;;;;;;;;;5063993;28;20230;-13
2022/03/17 14:15:36;;;;;;;3.47;0.90;;;;;;;;;;5054988;28;20220;-13
2022/03/17 14:18:03;;;;;;;3.53;1.27;;;;;;;;;;5051419;28;20564;-13
2022/03/17 14:20:30;;;;;;;4.10;1.00;;;;;;;;;;5051593;28;20337;-13
2022/03/17 14:25:43;;;;;;;2.38;0.80;;;;;;;;;;5051627;28;20615;-14
2022/03/17 14:28:10;;;;;;;2.15;0.80;;;;;;;;;;5051611;28;20954;-14
2022/03/17 14:30:37;;;;;;;7.50;1.17;;;;;;;;;;5060435;28;20243;-13
2022/03/17 14:33:04;;;;;;;5.20;1.05;;;;;;;;;;5091936;28;20339;-13
2022/03/17 14:35:33;;;;;;;1.92;0.70;;;;;;;;;;5079072;28;20229;-14
2022/03/17 14:38:00;;;;;;;4.38;0.90;;;;;;;;;;5071415;28;20230;-13
2022/03/17 14:40:27;;;;;;;2.00;1.00;;;;;;;;;;5070840;28;20246;-13
2022/03/17 14:42:54;;;;;;;3.80;1.00;;;;;;;;;;5063193;28;20239;-13
2022/03/17 14:45:21;;;;;;;4.32;1.30;;;;;;;;;;5053241;28;20685;-13
2022/03/17 14:47:48;;;;;;;4.75;0.90;;;;;;;;;;5071124;28;21208;-13
2022/03/17 14:50:20;;;;;;;4.78;0.90;;;;;;;;;;5071640;28;21025;-14
2022/03/17 14:52:47;;;;;;;4.47;0.77;;;;;;;;;;5071319;28;20217;-14
2022/03/17 14:55:15;;;;;;;3.60;0.85;;;;;;;;;;5071236;28;20236;-13